Time;durP1;ratioP1;P1;durP2;ratioP2;P2;SDS_P1;SDS_P2;PMS_P1;PMS_P2;Temp;Humidity;BMP_temperature;BMP_pressure;BME280_temperature;BME280_humidity;BME280_pressure;Samples;Min_cycle;Max_cycle;Signal;HPM_P1;HPM_P2
2023/07/20 00:00:37;;;;;;;2.05;1.50;;;25.10;48.10;;;;;;5000657;28;20225;-81
2023/07/20 00:03:12;;;;;;;1.92;1.73;;;25.10;48.10;;;;;;4983660;28;20221;-81
2023/07/20 00:05:41;;;;;;;1.60;1.50;;;25.10;48.10;;;;;;4998964;28;20203;-81
2023/07/20 00:08:08;;;;;;;2.40;1.67;;;25.00;48.10;;;;;;4997552;28;20201;-81
2023/07/20 00:10:35;;;;;;;1.77;1.60;;;25.10;48.20;;;;;;4998241;28;20221;-81
2023/07/20 00:13:02;;;;;;;1.65;1.55;;;25.00;48.20;;;;;;4999217;28;20207;-81
2023/07/20 00:15:31;;;;;;;1.85;1.75;;;25.00;48.20;;;;;;5002635;28;20205;-81
2023/07/20 00:17:58;;;;;;;2.33;1.50;;;24.90;48.20;;;;;;5002599;28;20216;-81
2023/07/20 00:20:25;;;;;;;2.03;1.80;;;24.90;48.30;;;;;;5020311;28;20209;-81
2023/07/20 00:22:54;;;;;;;1.48;1.35;;;24.90;48.30;;;;;;5003031;28;20196;-81
2023/07/20 00:25:21;;;;;;;2.28;1.70;;;24.90;48.40;;;;;;5002118;28;20197;-81
2023/07/20 00:27:49;;;;;;;1.75;1.65;;;24.90;48.40;;;;;;5002614;28;20204;-81
2023/07/20 00:30:16;;;;;;;2.40;1.67;;;24.80;48.30;;;;;;4986594;28;20224;-81
2023/07/20 00:32:45;;;;;;;3.00;1.55;;;24.90;48.50;;;;;;5002416;28;20228;-81
2023/07/20 00:35:12;;;;;;;1.98;1.77;;;24.80;48.40;;;;;;5002320;28;20220;-81
2023/07/20 00:37:40;;;;;;;2.35;1.90;;;24.80;48.40;;;;;;4986704;28;20729;-81
2023/07/20 00:40:07;;;;;;;1.80;1.70;;;24.80;48.50;;;;;;5002432;28;20216;-81
2023/07/20 00:42:35;;;;;;;1.98;1.88;;;24.80;48.50;;;;;;5001884;28;20268;-81
2023/07/20 00:45:03;;;;;;;2.33;1.90;;;24.70;48.50;;;;;;5002182;28;20762;-81
2023/07/20 00:47:30;;;;;;;1.80;1.70;;;24.70;48.50;;;;;;5002535;28;20225;-81
2023/07/20 00:49:58;;;;;;;2.60;2.00;;;24.70;48.50;;;;;;5001763;28;20196;-81
2023/07/20 00:52:25;;;;;;;2.15;2.00;;;24.70;48.60;;;;;;5001387;28;20259;-81
2023/07/20 00:54:56;;;;;;;2.30;1.95;;;24.70;48.70;;;;;;5001645;28;20216;-81
2023/07/20 00:57:23;;;;;;;2.20;1.88;;;24.70;48.60;;;;;;5001784;28;20288;-81
2023/07/20 00:59:50;;;;;;;2.08;1.88;;;24.60;48.60;;;;;;5001010;28;20548;-81
2023/07/20 01:02:17;;;;;;;2.10;1.90;;;24.60;48.60;;;;;;5000944;28;20685;-81
2023/07/20 01:04:44;;;;;;;2.15;1.90;;;24.60;48.60;;;;;;5000254;28;20287;-81
2023/07/20 01:07:14;;;;;;;2.78;2.20;;;24.60;48.60;;;;;;5000320;28;20208;-81
2023/07/20 01:09:45;;;;;;;2.55;2.10;;;24.60;48.60;;;;;;5000661;28;20235;-81
2023/07/20 01:12:14;;;;;;;2.10;1.90;;;24.60;48.70;;;;;;5001437;28;20221;-81
2023/07/20 01:14:41;;;;;;;2.35;2.03;;;24.50;48.60;;;;;;5002573;28;20216;-81
2023/07/20 01:17:09;;;;;;;2.28;2.08;;;24.50;48.60;;;;;;5002231;28;20205;-81
2023/07/20 01:19:35;;;;;;;2.55;2.05;;;24.50;48.60;;;;;;5002213;28;20227;-81
2023/07/20 01:22:04;;;;;;;2.60;2.10;;;24.50;48.40;;;;;;5001742;28;20590;-81
2023/07/20 01:25:06;;;;;;;2.42;2.13;;;24.50;49.20;;;;;;5000924;28;20280;-81
2023/07/20 01:27:58;;;;;;;3.00;2.10;;;24.50;48.70;;;;;;5001324;28;20208;-81
2023/07/20 01:30:54;;;;;;;3.22;2.33;;;24.40;48.50;;;;;;4987088;28;20254;-79
2023/07/20 01:33:23;;;;;;;2.20;2.00;;;24.40;48.50;;;;;;4998244;28;20259;-79
2023/07/20 01:35:54;;;;;;;2.30;2.10;;;24.40;48.40;;;;;;5002220;28;20228;-79
2023/07/20 01:38:21;;;;;;;3.70;1.92;;;24.40;48.50;;;;;;5002282;28;20199;-79
2023/07/20 01:40:50;;;;;;;2.60;1.80;;;24.30;48.30;;;;;;5002007;28;20220;-79
2023/07/20 01:43:17;;;;;;;2.35;2.15;;;24.30;48.40;;;;;;5002254;28;20207;-79
2023/07/20 01:45:44;;;;;;;2.03;1.83;;;24.30;48.40;;;;;;4969898;28;20710;-79
2023/07/20 01:48:13;;;;;;;2.20;2.00;;;24.30;48.30;;;;;;5002149;28;20276;-79
2023/07/20 01:50:41;;;;;;;1.98;1.80;;;24.30;48.30;;;;;;4986545;28;20224;-79
2023/07/20 01:53:09;;;;;;;2.45;2.22;;;24.30;48.10;;;;;;5032168;28;20201;-79
2023/07/20 01:55:36;;;;;;;2.20;2.00;;;24.30;48.30;;;;;;5015564;28;20212;-79
2023/07/20 01:58:04;;;;;;;3.08;1.90;;;24.30;48.40;;;;;;5014191;28;20197;-79
2023/07/20 02:00:31;;;;;;;2.10;1.92;;;24.30;48.40;;;;;;4999832;28;20219;-79
2023/07/20 02:02:58;;;;;;;2.10;2.00;;;24.20;48.30;;;;;;5004162;28;20584;-80
2023/07/20 02:05:26;;;;;;;2.08;1.80;;;24.20;48.30;;;;;;4988131;28;20682;-80
2023/07/20 02:07:54;;;;;;;2.20;2.00;;;24.20;48.40;;;;;;5003503;28;20197;-80
2023/07/20 02:10:21;;;;;;;2.75;2.20;;;24.20;48.30;;;;;;5002795;28;20658;-80
2023/07/20 02:12:48;;;;;;;2.17;1.95;;;24.20;48.50;;;;;;5002957;28;20703;-80
2023/07/20 02:15:16;;;;;;;2.30;1.98;;;24.10;48.30;;;;;;5002641;28;20216;-80
2023/07/20 02:17:43;;;;;;;2.20;1.90;;;24.10;48.30;;;;;;5002809;28;20197;-80
2023/07/20 02:20:11;;;;;;;4.05;2.00;;;24.10;48.50;;;;;;5002321;28;20227;-80
2023/07/20 02:22:38;;;;;;;1.98;1.70;;;24.10;48.30;;;;;;4986604;28;20287;-80
2023/07/20 02:25:08;;;;;;;2.25;2.05;;;24.00;48.50;;;;;;5019870;28;20180;-80
2023/07/20 02:27:35;;;;;;;2.30;2.10;;;24.00;48.40;;;;;;4986573;28;20197;-80
2023/07/20 02:30:03;;;;;;;1.98;1.88;;;24.00;48.20;;;;;;5001937;28;20232;-80
2023/07/20 02:32:31;;;;;;;3.20;2.10;;;24.00;48.30;;;;;;4969817;28;20733;-80
2023/07/20 02:34:58;;;;;;;2.10;1.90;;;24.00;48.50;;;;;;5001347;28;20225;-80
2023/07/20 02:37:25;;;;;;;2.42;2.20;;;24.00;48.50;;;;;;5000575;28;20335;-81
2023/07/20 02:39:53;;;;;;;2.15;1.95;;;24.00;48.30;;;;;;5001460;28;20203;-80
2023/07/20 02:42:22;;;;;;;2.22;2.03;;;24.00;48.40;;;;;;5001334;28;20201;-80
2023/07/20 02:44:50;;;;;;;3.08;2.15;;;23.90;48.30;;;;;;5001479;28;20201;-80
2023/07/20 02:47:17;;;;;;;2.20;1.90;;;23.90;48.10;;;;;;5000933;28;20197;-80
2023/07/20 02:49:44;;;;;;;3.88;2.33;;;23.90;48.30;;;;;;5000170;28;20212;-79
2023/07/20 02:52:12;;;;;;;3.20;2.22;;;23.90;48.40;;;;;;5000277;28;20197;-79
2023/07/20 02:54:38;;;;;;;2.78;2.00;;;23.90;48.50;;;;;;4999055;28;20223;-80
2023/07/20 02:57:06;;;;;;;2.67;1.90;;;23.90;48.20;;;;;;4998566;28;20718;-80
2023/07/20 02:59:35;;;;;;;2.78;1.90;;;23.80;48.30;;;;;;4999075;28;20570;-80
2023/07/20 03:02:03;;;;;;;1.80;1.70;;;23.80;48.30;;;;;;4983584;28;20225;-80
2023/07/20 03:04:30;;;;;;;2.55;2.13;;;23.80;48.30;;;;;;4983236;28;20665;-80
2023/07/20 03:06:57;;;;;;;2.25;2.05;;;23.80;48.10;;;;;;4999635;28;20244;-80
2023/07/20 03:09:24;;;;;;;2.45;2.08;;;23.80;47.90;;;;;;4983061;28;20224;-80
2023/07/20 03:11:51;;;;;;;3.55;1.92;;;23.80;47.70;;;;;;4998503;28;20216;-78
2023/07/20 03:14:19;;;;;;;2.45;2.08;;;23.80;47.70;;;;;;4998955;28;20212;-79
2023/07/20 03:16:47;;;;;;;2.22;2.03;;;23.80;47.70;;;;;;4999336;28;20608;-79
2023/07/20 03:19:14;;;;;;;2.42;2.22;;;23.80;47.70;;;;;;4998519;28;20204;-79
2023/07/20 03:21:42;;;;;;;2.38;1.95;;;23.80;47.80;;;;;;4998332;28;20244;-79
2023/07/20 03:24:09;;;;;;;2.70;1.80;;;23.90;47.80;;;;;;5000539;28;20200;-79
2023/07/20 03:26:37;;;;;;;2.65;2.13;;;23.90;47.80;;;;;;5000120;28;20193;-80
2023/07/20 03:29:05;;;;;;;2.55;1.95;;;23.90;47.60;;;;;;5000470;28;20243;-80
2023/07/20 03:31:33;;;;;;;2.40;2.05;;;23.90;47.50;;;;;;5000334;28;20286;-80
2023/07/20 03:34:01;;;;;;;2.40;2.20;;;24.00;47.50;;;;;;4999654;28;20192;-80
2023/07/20 03:36:28;;;;;;;2.92;2.25;;;23.90;47.50;;;;;;4999841;28;20225;-80
2023/07/20 03:38:56;;;;;;;2.47;2.03;;;24.00;47.50;;;;;;4999967;28;20203;-80
2023/07/20 03:41:23;;;;;;;2.55;2.28;;;24.00;47.50;;;;;;4999722;28;20583;-80
2023/07/20 03:43:50;;;;;;;2.38;2.00;;;24.00;47.40;;;;;;4999409;28;20663;-80
2023/07/20 03:46:18;;;;;;;2.33;1.90;;;24.00;47.50;;;;;;4999623;28;20205;-80
2023/07/20 03:48:45;;;;;;;2.35;2.15;;;24.00;47.40;;;;;;4997364;28;20219;-80
2023/07/20 03:51:14;;;;;;;2.40;2.20;;;24.00;47.20;;;;;;4998144;28;20221;-80
2023/07/20 03:53:42;;;;;;;2.28;1.92;;;23.90;47.20;;;;;;4999165;28;20204;-80
2023/07/20 03:56:09;;;;;;;3.20;2.30;;;24.00;47.40;;;;;;4999705;28;20713;-80
2023/07/20 03:58:37;;;;;;;2.40;1.95;;;24.00;47.20;;;;;;4999877;28;20571;-80
2023/07/20 04:01:04;;;;;;;2.40;2.20;;;24.00;46.90;;;;;;4982824;28;20220;-80
2023/07/20 04:03:32;;;;;;;2.30;2.10;;;23.90;46.80;;;;;;4982319;28;20619;-80
2023/07/20 04:05:59;;;;;;;2.25;2.05;;;23.90;46.80;;;;;;4998974;28;20570;-80
2023/07/20 04:08:28;;;;;;;3.30;2.30;;;23.90;46.90;;;;;;4998952;28;20283;-80
2023/07/20 04:10:55;;;;;;;2.22;2.05;;;23.90;47.00;;;;;;4998538;28;20267;-80
2023/07/20 04:13:23;;;;;;;2.70;2.20;;;24.00;47.10;;;;;;4999439;28;20283;-80
2023/07/20 04:15:50;;;;;;;2.42;2.20;;;23.90;47.00;;;;;;4998353;28;20634;-80
2023/07/20 04:18:17;;;;;;;2.22;1.92;;;24.00;47.20;;;;;;4998161;28;20200;-80
2023/07/20 04:20:44;;;;;;;2.50;2.30;;;24.00;47.20;;;;;;4998352;28;20224;-80
2023/07/20 04:23:11;;;;;;;2.42;2.10;;;23.90;47.20;;;;;;4998693;28;20197;-80
2023/07/20 04:25:41;;;;;;;2.75;2.30;;;23.90;47.30;;;;;;4997983;28;20560;-80
2023/07/20 04:28:12;;;;;;;2.25;2.05;;;23.90;47.40;;;;;;4998712;28;20201;-80
2023/07/20 04:30:43;;;;;;;3.20;2.22;;;23.90;47.50;;;;;;4997972;28;20216;-79
2023/07/20 04:33:10;;;;;;;2.67;2.47;;;23.90;47.40;;;;;;4996951;28;20197;-79
2023/07/20 04:35:51;;;;;;;3.35;2.30;;;23.90;47.70;;;;;;4997108;28;20224;-80
2023/07/20 04:38:21;;;;;;;3.33;2.20;;;24.00;47.70;;;;;;4995951;28;20200;-80
2023/07/20 04:40:56;;;;;;;4.13;2.30;;;24.00;48.00;;;;;;4997408;28;20213;-80
2023/07/20 04:43:24;;;;;;;3.08;2.08;;;23.80;47.30;;;;;;4981242;28;20196;-80
2023/07/20 04:45:51;;;;;;;2.30;2.10;;;23.50;48.00;;;;;;4980851;28;20276;-80
2023/07/20 04:48:18;;;;;;;3.60;2.60;;;23.20;48.70;;;;;;4997053;28;20211;-81
2023/07/20 04:50:51;;;;;;;4.70;2.40;;;23.00;49.00;;;;;;4997076;28;20707;-81
2023/07/20 04:53:19;;;;;;;2.45;2.10;;;23.00;49.20;;;;;;4997136;28;20209;-80
2023/07/20 04:55:50;;;;;;;2.63;2.42;;;22.90;49.40;;;;;;4980351;28;20209;-80
2023/07/20 04:58:20;;;;;;;3.25;2.35;;;22.90;49.10;;;;;;4998032;28;20223;-81
2023/07/20 05:00:47;;;;;;;3.70;2.30;;;23.00;49.40;;;;;;5005151;28;20216;-81
2023/07/20 05:03:14;;;;;;;3.83;2.15;;;22.90;49.60;;;;;;5007076;28;20197;-81
2023/07/20 05:05:41;;;;;;;2.30;2.10;;;23.00;49.50;;;;;;5006558;28;20200;-81
2023/07/20 05:08:08;;;;;;;2.90;2.03;;;23.00;49.40;;;;;;5001650;28;20209;-81
2023/07/20 05:10:35;;;;;;;2.72;2.10;;;23.00;50.40;;;;;;5001307;28;20212;-81
2023/07/20 05:13:03;;;;;;;4.35;2.30;;;23.00;50.40;;;;;;5000333;28;20733;-83
2023/07/20 05:15:33;;;;;;;2.65;2.00;;;23.10;50.30;;;;;;4999643;28;20280;-82
2023/07/20 05:18:00;;;;;;;2.88;2.30;;;23.30;49.80;;;;;;5017421;28;20176;-82
2023/07/20 05:20:28;;;;;;;2.72;1.92;;;23.50;49.40;;;;;;5000721;28;20637;-82
2023/07/20 05:22:55;;;;;;;3.42;2.10;;;23.70;49.00;;;;;;5000840;28;20571;-82
2023/07/20 05:25:22;;;;;;;2.40;2.05;;;23.80;48.80;;;;;;5000411;28;20193;-82
2023/07/20 05:27:50;;;;;;;2.38;2.17;;;23.90;48.70;;;;;;4984353;28;20255;-82
2023/07/20 05:30:18;;;;;;;2.67;1.92;;;24.00;48.40;;;;;;5000852;28;20626;-82
2023/07/20 05:32:50;;;;;;;2.38;2.17;;;24.10;48.30;;;;;;5000331;28;20282;-82
2023/07/20 05:35:18;;;;;;;2.10;1.90;;;24.20;48.30;;;;;;5001927;28;20209;-82
2023/07/20 05:37:45;;;;;;;2.60;1.90;;;24.20;48.10;;;;;;5001660;28;20217;-82
2023/07/20 05:40:14;;;;;;;2.75;1.98;;;24.30;48.10;;;;;;5000545;28;20695;-82
2023/07/20 05:42:42;;;;;;;3.65;2.10;;;24.40;48.10;;;;;;4999778;28;20201;-79
2023/07/20 05:45:09;;;;;;;1.95;1.75;;;24.40;47.90;;;;;;4999862;28;20204;-78
2023/07/20 05:47:36;;;;;;;4.88;2.10;;;24.50;47.90;;;;;;5000287;28;20188;-78
2023/07/20 05:50:06;;;;;;;2.75;2.08;;;24.50;47.90;;;;;;4999772;28;20216;-78
2023/07/20 05:52:33;;;;;;;3.55;2.33;;;24.60;47.90;;;;;;4983183;28;20200;-77
2023/07/20 05:55:00;;;;;;;2.15;1.95;;;24.60;47.70;;;;;;4998887;28;20197;-77
2023/07/20 05:57:28;;;;;;;2.30;2.03;;;24.60;47.70;;;;;;4982191;28;20217;-77
2023/07/20 05:59:55;;;;;;;2.33;2.03;;;24.70;47.80;;;;;;4998812;28;20251;-78
2023/07/20 06:02:22;;;;;;;2.78;1.85;;;24.70;47.70;;;;;;4999318;28;20663;-79
2023/07/20 06:04:49;;;;;;;2.80;2.20;;;24.80;47.50;;;;;;4999775;28;20197;-79
2023/07/20 06:07:18;;;;;;;2.20;1.85;;;24.90;47.50;;;;;;4998629;28;20200;-79
2023/07/20 06:09:45;;;;;;;2.97;1.90;;;24.90;47.40;;;;;;4998951;28;20208;-79
2023/07/20 06:12:12;;;;;;;2.03;1.90;;;25.00;47.30;;;;;;4998631;28;20211;-79
2023/07/20 06:14:39;;;;;;;3.03;1.88;;;25.10;47.10;;;;;;4982634;28;20196;-79
2023/07/20 06:17:07;;;;;;;1.80;1.70;;;25.30;46.90;;;;;;4998723;28;20220;-79
2023/07/20 06:19:34;;;;;;;2.10;1.90;;;25.30;46.80;;;;;;4998302;28;20209;-76
2023/07/20 06:22:01;;;;;;;3.80;1.90;;;25.40;46.70;;;;;;4997734;28;20231;-77
2023/07/20 06:24:30;;;;;;;1.92;1.80;;;25.40;46.60;;;;;;4998265;28;20200;-77
2023/07/20 06:26:57;;;;;;;2.30;2.00;;;25.40;46.60;;;;;;4997838;28;20193;-77
2023/07/20 06:29:24;;;;;;;3.42;2.03;;;25.40;46.50;;;;;;4998472;28;20703;-77
2023/07/20 06:31:51;;;;;;;2.00;1.77;;;25.40;46.40;;;;;;4997753;28;20259;-77
2023/07/20 06:34:19;;;;;;;1.88;1.75;;;25.40;46.40;;;;;;4997719;28;20197;-77
2023/07/20 06:36:46;;;;;;;1.90;1.70;;;25.40;46.90;;;;;;4997712;28;20216;-77
2023/07/20 06:39:14;;;;;;;2.50;2.05;;;25.40;46.20;;;;;;4997517;28;20204;-77
2023/07/20 06:41:42;;;;;;;2.28;2.03;;;25.40;46.20;;;;;;4998374;28;20578;-77
2023/07/20 06:44:09;;;;;;;1.90;1.60;;;25.40;46.10;;;;;;4997857;28;20197;-77
2023/07/20 06:46:37;;;;;;;4.30;1.85;;;25.50;46.10;;;;;;4981734;28;20228;-77
2023/07/20 06:49:07;;;;;;;2.85;1.85;;;25.60;46.10;;;;;;4997745;28;20211;-77
2023/07/20 06:51:34;;;;;;;2.05;1.88;;;25.60;45.90;;;;;;4997527;28;20683;-77
2023/07/20 06:54:04;;;;;;;2.22;1.90;;;25.60;45.70;;;;;;4997845;28;20255;-77
2023/07/20 06:56:31;;;;;;;2.22;2.00;;;25.60;45.60;;;;;;4998274;28;20212;-77
2023/07/20 06:59:00;;;;;;;2.00;1.80;;;25.70;45.60;;;;;;4997550;28;20204;-77
2023/07/20 07:01:27;;;;;;;3.13;2.10;;;25.90;45.20;;;;;;4997579;28;20224;-77
2023/07/20 07:03:54;;;;;;;2.20;1.90;;;26.00;44.80;;;;;;4997524;28;20200;-77
2023/07/20 07:06:22;;;;;;;3.20;2.00;;;26.20;44.40;;;;;;4998228;28;20556;-78
2023/07/20 07:08:49;;;;;;;2.15;1.88;;;26.50;44.00;;;;;;4998116;28;20767;-77
2023/07/20 07:11:16;;;;;;;2.45;2.05;;;26.60;43.60;;;;;;4997940;28;20266;-77
2023/07/20 07:13:43;;;;;;;2.10;1.88;;;26.80;43.40;;;;;;4997772;28;20200;-77
2023/07/20 07:16:11;;;;;;;2.30;2.00;;;26.80;43.00;;;;;;5015876;28;20247;-77
2023/07/20 07:18:40;;;;;;;2.35;2.00;;;26.90;42.90;;;;;;4998076;28;20578;-77
2023/07/20 07:21:07;;;;;;;3.20;1.95;;;27.00;42.80;;;;;;4999238;28;20311;-78
2023/07/20 07:23:34;;;;;;;3.13;2.17;;;27.10;42.50;;;;;;4999767;28;20655;-78
2023/07/20 07:26:01;;;;;;;2.13;1.92;;;27.10;42.20;;;;;;4997495;28;20228;-77
2023/07/20 07:28:29;;;;;;;2.22;2.03;;;27.20;42.00;;;;;;4997337;28;20215;-76
2023/07/20 07:30:56;;;;;;;3.20;1.90;;;27.30;41.90;;;;;;4997262;28;20216;-76
2023/07/20 07:33:25;;;;;;;2.20;1.83;;;27.50;41.70;;;;;;5015319;28;20217;-76
2023/07/20 07:35:52;;;;;;;2.15;1.90;;;27.60;41.40;;;;;;4997934;28;20212;-77
2023/07/20 07:38:19;;;;;;;2.25;1.90;;;27.60;41.10;;;;;;4997639;28;20219;-77
2023/07/20 07:40:47;;;;;;;2.22;2.03;;;27.70;40.90;;;;;;5015218;28;20215;-77
2023/07/20 07:43:14;;;;;;;2.35;1.90;;;27.80;40.70;;;;;;4981429;28;20203;-77
2023/07/20 07:45:41;;;;;;;2.28;1.88;;;27.90;40.70;;;;;;4998325;28;20204;-78
2023/07/20 07:48:11;;;;;;;1.90;1.80;;;27.90;40.60;;;;;;4981313;28;20562;-77
2023/07/20 07:50:40;;;;;;;2.30;2.00;;;27.90;40.70;;;;;;4997151;28;20220;-77
2023/07/20 07:53:07;;;;;;;2.28;1.95;;;27.80;40.60;;;;;;4997019;28;20287;-77
2023/07/20 07:55:34;;;;;;;1.90;1.80;;;27.80;40.80;;;;;;4996712;28;20196;-77
2023/07/20 07:58:01;;;;;;;2.22;1.80;;;27.80;41.00;;;;;;4996810;28;20216;-77
2023/07/20 08:00:28;;;;;;;2.20;1.80;;;27.70;41.10;;;;;;4996467;28;20278;-77
2023/07/20 08:02:55;;;;;;;2.63;1.95;;;27.60;41.20;;;;;;5014112;28;20208;-77
2023/07/20 08:05:23;;;;;;;2.88;1.95;;;27.50;41.40;;;;;;4996424;28;20204;-77
2023/07/20 08:07:52;;;;;;;2.53;1.85;;;27.40;41.60;;;;;;4996640;28;20227;-77
2023/07/20 08:10:19;;;;;;;2.30;1.95;;;27.30;41.80;;;;;;4996254;28;20223;-77
2023/07/20 08:12:46;;;;;;;2.25;1.77;;;27.30;41.80;;;;;;5013868;28;20203;-77
2023/07/20 08:15:14;;;;;;;3.35;2.00;;;27.30;41.80;;;;;;4996265;28;20251;-77
2023/07/20 08:17:42;;;;;;;2.55;2.17;;;27.40;41.60;;;;;;4995988;28;20223;-77
2023/07/20 08:20:11;;;;;;;2.47;1.83;;;27.60;41.40;;;;;;4996085;28;20270;-77
2023/07/20 08:22:38;;;;;;;2.10;1.90;;;27.70;41.00;;;;;;4997456;28;20204;-77
2023/07/20 08:25:09;;;;;;;2.33;1.90;;;27.80;40.90;;;;;;4996955;28;20203;-77
2023/07/20 08:27:37;;;;;;;2.10;1.90;;;27.80;41.10;;;;;;4996362;28;20188;-77
2023/07/20 08:30:05;;;;;;;2.10;1.95;;;27.70;41.10;;;;;;4996277;28;20713;-77
2023/07/20 08:32:33;;;;;;;2.25;2.00;;;27.60;41.30;;;;;;4996197;28;20208;-77
2023/07/20 08:35:01;;;;;;;2.13;1.88;;;27.50;41.20;;;;;;4998856;28;20675;-77
2023/07/20 08:37:28;;;;;;;2.20;2.00;;;27.50;41.30;;;;;;4999654;28;20216;-77
2023/07/20 08:39:55;;;;;;;2.58;1.90;;;27.50;41.30;;;;;;4999991;28;20207;-77
2023/07/20 08:42:24;;;;;;;3.30;2.00;;;27.60;41.10;;;;;;4999636;28;20319;-77
2023/07/20 08:44:51;;;;;;;2.92;1.95;;;27.80;40.90;;;;;;4999618;28;20193;-77
2023/07/20 08:47:17;;;;;;;2.08;1.85;;;27.90;40.60;;;;;;4999446;28;20216;-77
2023/07/20 08:49:45;;;;;;;2.53;1.80;;;27.90;40.30;;;;;;4999307;28;20203;-77
2023/07/20 08:52:13;;;;;;;2.00;1.90;;;28.00;40.30;;;;;;5000034;28;20211;-78
2023/07/20 08:54:39;;;;;;;2.45;2.00;;;28.00;40.20;;;;;;4999489;28;20196;-78
2023/07/20 08:57:08;;;;;;;1.95;1.80;;;28.10;40.20;;;;;;4999574;28;20671;-78
2023/07/20 08:59:37;;;;;;;1.90;1.63;;;28.20;40.20;;;;;;4983900;28;20291;-78
2023/07/20 09:02:05;;;;;;;1.80;1.70;;;28.30;40.20;;;;;;5000584;28;20216;-77
2023/07/20 09:04:32;;;;;;;2.22;1.80;;;28.30;40.10;;;;;;4999447;28;20219;-77
2023/07/20 09:06:59;;;;;;;2.25;2.05;;;28.20;40.10;;;;;;4999486;28;20617;-77
2023/07/20 09:09:26;;;;;;;2.30;1.88;;;28.10;40.10;;;;;;4999390;28;20212;-78
2023/07/20 09:11:54;;;;;;;3.53;1.95;;;28.10;40.20;;;;;;4999525;28;20310;-77
2023/07/20 09:14:21;;;;;;;2.03;1.80;;;28.00;40.70;;;;;;4999335;28;20232;-78
2023/07/20 09:16:50;;;;;;;2.17;1.90;;;28.10;40.10;;;;;;4999330;28;20728;-77
2023/07/20 09:19:17;;;;;;;1.88;1.63;;;28.10;40.00;;;;;;4999402;28;20200;-77
2023/07/20 09:21:46;;;;;;;2.35;1.80;;;28.30;40.00;;;;;;4999342;28;20319;-77
2023/07/20 09:24:13;;;;;;;2.88;2.00;;;28.40;39.70;;;;;;4999427;28;20207;-77
2023/07/20 09:26:41;;;;;;;2.28;1.85;;;28.50;39.60;;;;;;4999347;28;20262;-77
2023/07/20 09:29:09;;;;;;;1.75;1.65;;;28.60;39.50;;;;;;4999655;28;20228;-77
2023/07/20 09:31:36;;;;;;;1.90;1.80;;;28.60;39.50;;;;;;4982960;28;20212;-77
2023/07/20 09:34:05;;;;;;;2.15;1.98;;;28.70;39.40;;;;;;4999143;28;20322;-77
2023/07/20 09:36:34;;;;;;;1.90;1.80;;;28.80;39.30;;;;;;4998817;28;20302;-77
2023/07/20 09:39:01;;;;;;;1.90;1.80;;;28.70;39.00;;;;;;4999088;28;20225;-77
2023/07/20 09:41:28;;;;;;;1.65;1.55;;;28.70;38.80;;;;;;4999085;28;20223;-77
2023/07/20 09:43:55;;;;;;;2.42;1.80;;;28.70;39.00;;;;;;5000159;28;20568;-77
2023/07/20 09:46:23;;;;;;;3.55;1.90;;;28.70;39.10;;;;;;5040691;22;20291;-77
2023/07/20 09:48:53;;;;;;;2.10;1.90;;;28.70;38.90;;;;;;4999582;28;20188;-77
2023/07/20 09:51:22;;;;;;;1.90;1.80;;;28.60;39.20;;;;;;4999461;28;20220;-77
2023/07/20 09:53:49;;;;;;;2.10;1.73;;;28.50;39.40;;;;;;4998598;28;20196;-77
2023/07/20 09:56:17;;;;;;;2.78;1.80;;;28.40;39.90;;;;;;4998699;28;20274;-77
2023/07/20 09:58:44;;;;;;;2.15;1.95;;;28.30;40.00;;;;;;4998329;28;20322;-77
2023/07/20 10:01:12;;;;;;;2.30;2.00;;;28.20;40.10;;;;;;4998640;28;20223;-77
2023/07/20 10:03:39;;;;;;;1.92;1.73;;;28.10;40.40;;;;;;4998289;28;20250;-77
2023/07/20 10:06:08;;;;;;;1.65;1.55;;;28.00;40.40;;;;;;5015831;28;20184;-77
2023/07/20 10:08:39;;;;;;;2.15;1.60;;;28.00;40.40;;;;;;5014093;23;20291;-77
2023/07/20 10:11:06;;;;;;;1.98;1.80;;;28.00;40.40;;;;;;4975872;28;20292;-78
2023/07/20 10:13:34;;;;;;;1.90;1.80;;;28.00;40.10;;;;;;4975789;28;20198;-78
2023/07/20 10:16:04;;;;;;;2.08;1.80;;;28.10;40.00;;;;;;4975309;28;20212;-77
2023/07/20 10:18:32;;;;;;;2.00;1.80;;;28.20;39.90;;;;;;4991617;28;20272;-77
2023/07/20 10:21:00;;;;;;;2.50;1.70;;;28.20;39.70;;;;;;5060385;23;20597;-77
2023/07/20 10:23:28;;;;;;;1.90;1.80;;;28.30;39.60;;;;;;4994538;28;20263;-77
2023/07/20 10:25:56;;;;;;;1.67;1.58;;;28.30;39.70;;;;;;4995734;28;20189;-77
2023/07/20 10:28:24;;;;;;;1.80;1.67;;;28.30;39.90;;;;;;4994815;28;20208;-76
2023/07/20 10:30:50;;;;;;;2.13;1.85;;;28.30;40.00;;;;;;4994203;28;20232;-75
2023/07/20 10:33:18;;;;;;;1.80;1.70;;;28.30;40.20;;;;;;4994452;28;20240;-76
2023/07/20 10:35:54;;;;;;;2.17;1.90;;;28.20;40.10;;;;;;4994427;28;20192;-76
2023/07/20 10:40:57;;;;;;;3.08;1.80;;;28.10;40.20;;;;;;4993394;28;20696;-54
2023/07/20 10:43:25;;;;;;;1.88;1.77;;;28.10;40.20;;;;;;4977116;28;20204;-54
2023/07/20 10:45:53;;;;;;;1.92;1.80;;;28.10;40.30;;;;;;4994542;28;20193;-54
2023/07/20 10:48:21;;;;;;;1.60;1.50;;;28.10;40.30;;;;;;4977096;28;20196;-54
2023/07/20 10:51:10;;;;;;;2.50;1.73;;;28.10;40.30;;;;;;4976900;28;20320;-54
2023/07/20 10:53:36;;;;;;;1.65;1.55;;;28.10;40.20;;;;;;4995099;28;20680;-54
2023/07/20 10:56:09;;;;;;;2.17;1.83;;;28.10;40.90;;;;;;4993862;28;20189;-54
2023/07/20 10:58:36;;;;;;;2.20;1.80;;;28.10;40.40;;;;;;4992801;28;20291;-54
2023/07/20 11:01:06;;;;;;;1.80;1.70;;;28.10;40.60;;;;;;4994300;28;20213;-54
2023/07/20 11:03:34;;;;;;;1.83;1.70;;;28.10;40.50;;;;;;4994232;28;20188;-54
2023/07/20 11:06:02;;;;;;;1.83;1.50;;;28.10;40.50;;;;;;4994296;28;20289;-54
2023/07/20 11:08:45;;;;;;;2.30;1.70;;;28.10;40.30;;;;;;4976694;28;20199;-54
2023/07/20 11:11:26;;;;;;;1.95;1.77;;;28.10;40.40;;;;;;4976933;28;20220;-54
2023/07/20 11:13:57;;;;;;;1.80;1.58;;;28.10;40.40;;;;;;4994089;28;20250;-54
2023/07/20 11:16:38;;;;;;;1.65;1.55;;;28.10;40.60;;;;;;4994051;28;20193;-54
2023/07/20 11:19:06;;;;;;;1.80;1.70;;;28.10;40.80;;;;;;4994058;28;20215;-54
2023/07/20 11:21:37;;;;;;;2.20;1.85;;;28.00;40.80;;;;;;4992589;28;20693;-54
2023/07/20 11:24:05;;;;;;;1.67;1.58;;;28.00;40.80;;;;;;4976520;28;20642;-54
2023/07/20 11:26:43;;;;;;;1.80;1.70;;;28.00;40.80;;;;;;4976318;28;20283;-54
2023/07/20 11:29:09;;;;;;;2.17;1.77;;;27.90;40.60;;;;;;4976575;28;20665;-54
2023/07/20 11:31:37;;;;;;;1.70;1.60;;;28.00;40.80;;;;;;4993851;28;20284;-54
2023/07/20 11:34:05;;;;;;;1.65;1.55;;;28.00;40.70;;;;;;4993959;28;20592;-55
2023/07/20 11:36:32;;;;;;;1.80;1.70;;;28.00;40.50;;;;;;4994105;28;20275;-54
2023/07/20 11:38:59;;;;;;;1.80;1.55;;;27.90;40.60;;;;;;4993632;28;20219;-55
2023/07/20 11:41:26;;;;;;;1.70;1.60;;;28.00;40.80;;;;;;4992348;28;20299;-54
2023/07/20 11:43:55;;;;;;;1.70;1.60;;;28.00;40.80;;;;;;4976241;28;20232;-54
2023/07/20 11:46:22;;;;;;;1.67;1.40;;;28.00;40.80;;;;;;4992297;28;20633;-54
2023/07/20 11:48:49;;;;;;;1.38;1.27;;;28.00;40.90;;;;;;4976141;28;20201;-54
2023/07/20 11:51:16;;;;;;;1.80;1.70;;;28.00;40.90;;;;;;4992219;28;20319;-55
2023/07/20 11:53:44;;;;;;;2.63;1.67;;;28.00;41.00;;;;;;4992245;28;20295;-54
2023/07/20 11:56:11;;;;;;;1.50;1.40;;;28.00;40.90;;;;;;4976115;28;20208;-54
2023/07/20 11:58:43;;;;;;;1.75;1.60;;;28.00;41.00;;;;;;4988171;23;20336;-78
2023/07/20 12:01:12;;;;;;;2.50;1.55;;;28.00;40.70;;;;;;4974372;28;20311;-78
2023/07/20 12:03:40;;;;;;;1.80;1.70;;;28.00;40.90;;;;;;4974871;28;20220;-78
2023/07/20 12:06:10;;;;;;;1.85;1.52;;;28.00;40.90;;;;;;4979211;28;20201;-78
2023/07/20 12:08:39;;;;;;;1.50;1.40;;;27.90;40.60;;;;;;4976196;28;20197;-78
2023/07/20 12:11:06;;;;;;;2.03;1.80;;;27.90;40.60;;;;;;4978160;28;20250;-78
2023/07/20 12:13:38;;;;;;;1.88;1.70;;;27.90;40.80;;;;;;4977744;28;20687;-78
2023/07/20 12:16:13;;;;;;;1.40;1.30;;;28.00;40.90;;;;;;4977599;28;20552;-78
2023/07/20 12:18:40;;;;;;;1.58;1.48;;;27.90;40.70;;;;;;4977365;28;20220;-78
2023/07/20 12:21:07;;;;;;;1.65;1.55;;;27.90;40.50;;;;;;4977337;28;20221;-78
2023/07/20 12:23:38;;;;;;;1.92;1.67;;;27.90;40.20;;;;;;4977406;28;20201;-78
2023/07/20 12:26:07;;;;;;;1.63;1.52;;;27.90;40.60;;;;;;4977534;28;20201;-78
2023/07/20 12:28:34;;;;;;;1.80;1.70;;;27.90;40.60;;;;;;4977543;28;20205;-78
2023/07/20 12:31:01;;;;;;;2.58;1.65;;;27.90;40.50;;;;;;4977187;28;20221;-78
2023/07/20 12:33:29;;;;;;;1.58;1.48;;;27.90;40.60;;;;;;4978306;28;20683;-78
2023/07/20 12:35:58;;;;;;;2.00;1.55;;;27.80;40.50;;;;;;4977502;28;20224;-78
2023/07/20 12:38:27;;;;;;;1.80;1.70;;;27.80;40.60;;;;;;4977374;28;20221;-78
2023/07/20 12:40:54;;;;;;;1.65;1.55;;;27.80;40.40;;;;;;4977437;28;20221;-78
2023/07/20 12:43:21;;;;;;;2.30;1.77;;;27.80;40.40;;;;;;4978033;28;20300;-78
2023/07/20 12:45:48;;;;;;;1.58;1.48;;;27.80;40.40;;;;;;4977351;28;20197;-78
2023/07/20 12:48:15;;;;;;;1.63;1.52;;;27.80;40.60;;;;;;4977439;28;20204;-78
2023/07/20 12:50:44;;;;;;;1.55;1.45;;;27.80;40.80;;;;;;4977184;28;20680;-78
2023/07/20 12:53:11;;;;;;;1.70;1.60;;;27.80;40.90;;;;;;4976813;28;20189;-78
2023/07/20 12:55:38;;;;;;;1.48;1.38;;;27.70;40.90;;;;;;4978159;28;20193;-78